Time;durP1;ratioP1;P1;durP2;ratioP2;P2;SDS_P1;SDS_P2;PMS_P1;PMS_P2;Temp;Humidity;BMP_temperature;BMP_pressure;BME280_temperature;BME280_humidity;BME280_pressure;Samples;Min_cycle;Max_cycle;Signal;HPM_P1;HPM_P2
2021/05/20 00:02:15;;;;;;;12.68;6.78;;;21.70;65.10;;;;;;5094105;28;20056;-71
2021/05/20 00:04:42;;;;;;;9.05;6.05;;;21.70;64.80;;;;;;5112552;28;20042;-71
2021/05/20 00:07:08;;;;;;;12.18;7.32;;;21.80;64.60;;;;;;5094054;28;20492;-71
2021/05/20 00:09:34;;;;;;;13.00;7.40;;;21.80;64.30;;;;;;5096684;28;20093;-71
2021/05/20 00:12:00;;;;;;;12.55;7.47;;;21.90;64.00;;;;;;5116132;28;20043;-72
2021/05/20 00:14:27;;;;;;;13.20;7.20;;;21.90;63.90;;;;;;5081139;28;20062;-71
2021/05/20 00:16:55;;;;;;;11.75;8.48;;;21.90;63.80;;;;;;5115984;28;20127;-71
2021/05/20 00:19:24;;;;;;;13.43;8.20;;;21.90;63.90;;;;;;5097875;28;20067;-72
2021/05/20 00:21:50;;;;;;;12.38;8.18;;;21.90;63.80;;;;;;5097494;28;20093;-71
2021/05/20 00:24:16;;;;;;;11.38;8.10;;;21.90;63.90;;;;;;5116639;28;20525;-72
2021/05/20 00:26:43;;;;;;;9.75;7.85;;;21.90;64.10;;;;;;5097913;28;20054;-71
2021/05/20 00:29:08;;;;;;;13.35;6.72;;;21.90;64.00;;;;;;5097766;28;20114;-71
2021/05/20 00:31:35;;;;;;;9.38;7.40;;;21.90;63.80;;;;;;5115968;28;20173;-73
2021/05/20 00:34:01;;;;;;;12.63;8.00;;;21.90;63.50;;;;;;5115592;28;20491;-76
2021/05/20 00:36:27;;;;;;;10.68;8.05;;;21.90;63.40;;;;;;5115558;28;20042;-71
2021/05/20 00:38:53;;;;;;;12.55;8.38;;;21.90;63.50;;;;;;5097620;28;20130;-70
2021/05/20 00:41:21;;;;;;;9.55;8.40;;;21.90;63.70;;;;;;5115618;28;20130;-71
2021/05/20 00:43:47;;;;;;;13.35;8.13;;;21.90;63.70;;;;;;5097671;28;20031;-71
2021/05/20 00:46:13;;;;;;;12.80;8.13;;;21.90;63.80;;;;;;5115630;28;20035;-72
2021/05/20 00:48:41;;;;;;;12.77;9.10;;;21.80;63.80;;;;;;5115590;28;20454;-73
2021/05/20 00:51:07;;;;;;;15.18;8.93;;;21.80;64.00;;;;;;5080600;28;20036;-71
2021/05/20 00:53:33;;;;;;;14.90;8.48;;;21.80;64.00;;;;;;5115383;28;20035;-70
2021/05/20 00:55:59;;;;;;;13.75;8.68;;;21.80;64.00;;;;;;5097057;28;20442;-71
2021/05/20 00:58:25;;;;;;;14.35;8.75;;;21.80;64.10;;;;;;5115319;28;20479;-72
2021/05/20 01:00:54;;;;;;;21.20;9.20;;;21.80;64.50;;;;;;5115081;28;20055;-74
2021/05/20 01:03:23;;;;;;;15.85;8.35;;;21.70;64.50;;;;;;5115194;28;20043;-73
2021/05/20 01:05:52;;;;;;;12.27;8.82;;;21.70;64.50;;;;;;5115275;28;20035;-70
2021/05/20 01:08:18;;;;;;;17.17;9.82;;;21.70;64.50;;;;;;5097143;28;20036;-70
2021/05/20 01:10:44;;;;;;;11.27;8.70;;;21.70;64.60;;;;;;5115018;28;20161;-72
2021/05/20 01:13:10;;;;;;;13.68;9.57;;;21.70;64.60;;;;;;5115283;28;20138;-73
2021/05/20 01:15:36;;;;;;;11.32;8.50;;;21.70;64.90;;;;;;5115013;28;20063;-70
2021/05/20 01:18:05;;;;;;;11.05;8.88;;;21.70;65.00;;;;;;5115026;28;20032;-73
2021/05/20 01:20:39;;;;;;;15.57;9.23;;;21.70;65.20;;;;;;5114705;28;20047;-70
2021/05/20 01:23:09;;;;;;;15.48;9.30;;;21.70;65.30;;;;;;5096748;28;20181;-71
2021/05/20 01:25:37;;;;;;;11.48;9.02;;;21.70;65.40;;;;;;5114499;28;20100;-70
2021/05/20 01:28:05;;;;;;;13.50;9.20;;;21.70;65.40;;;;;;5096468;28;20019;-70
2021/05/20 01:30:33;;;;;;;13.93;9.60;;;21.60;65.70;;;;;;5096459;28;20062;-74
2021/05/20 01:32:59;;;;;;;15.65;8.55;;;21.60;65.60;;;;;;5114966;28;20116;-73
2021/05/20 01:35:25;;;;;;;14.50;8.82;;;21.60;65.80;;;;;;5114735;28;20038;-73
2021/05/20 01:38:38;;;;;;;12.70;8.20;;;21.60;65.90;;;;;;5096422;28;20039;-70
2021/05/20 01:40:57;;;;;;;9.02;7.93;;;21.60;66.40;;;;;;5114196;28;20031;-70
2021/05/20 01:43:24;;;;;;;13.02;8.57;;;21.50;66.10;;;;;;5096439;28;20043;-72
2021/05/20 01:45:57;;;;;;;11.98;8.52;;;21.60;66.20;;;;;;5096462;28;20027;-75
2021/05/20 01:48:35;;;;;;;10.15;8.27;;;21.60;66.00;;;;;;5114695;28;20053;-70
2021/05/20 01:51:03;;;;;;;9.38;7.47;;;21.60;66.00;;;;;;5096135;28;20035;-68
2021/05/20 01:53:29;;;;;;;12.93;7.80;;;21.60;65.50;;;;;;5096464;28;20179;-70
2021/05/20 01:55:55;;;;;;;11.77;8.60;;;21.70;65.30;;;;;;5096005;28;20070;-71
2021/05/20 01:58:21;;;;;;;9.40;7.28;;;21.70;65.20;;;;;;5113955;28;20055;-71
2021/05/20 02:00:47;;;;;;;13.05;7.95;;;21.70;64.90;;;;;;5113932;28;20059;-71
2021/05/20 02:03:13;;;;;;;11.93;7.55;;;21.70;64.70;;;;;;5114069;28;20046;-71
2021/05/20 02:05:40;;;;;;;10.13;7.30;;;21.70;64.50;;;;;;5078820;28;20031;-72
2021/05/20 02:08:05;;;;;;;9.15;7.40;;;21.80;64.30;;;;;;5114048;28;20039;-75
2021/05/20 02:10:31;;;;;;;10.80;6.80;;;21.80;64.00;;;;;;5095649;28;20621;-71
2021/05/20 02:12:57;;;;;;;11.02;7.00;;;21.90;63.90;;;;;;5113774;28;20035;-70
2021/05/20 02:15:23;;;;;;;8.50;6.45;;;21.90;63.90;;;;;;5113582;28;20051;-73
2021/05/20 02:17:49;;;;;;;7.22;6.25;;;22.00;63.80;;;;;;5095997;28;20024;-70
2021/05/20 02:20:15;;;;;;;7.32;6.50;;;22.10;63.50;;;;;;5114084;28;20035;-71
2021/05/20 02:22:41;;;;;;;9.07;6.22;;;22.20;63.40;;;;;;5113864;28;20068;-71
2021/05/20 02:25:08;;;;;;;7.88;6.00;;;22.20;63.30;;;;;;5113056;28;20080;-71
2021/05/20 02:27:34;;;;;;;6.85;6.15;;;22.30;63.00;;;;;;5095533;28;20042;-70
2021/05/20 02:30:00;;;;;;;10.32;5.93;;;22.60;62.60;;;;;;5113676;28;20043;-71
2021/05/20 02:32:26;;;;;;;9.73;6.03;;;22.70;62.20;;;;;;5094583;28;20031;-70
2021/05/20 02:34:52;;;;;;;8.23;5.90;;;22.80;61.80;;;;;;5113043;28;20036;-69
2021/05/20 02:37:18;;;;;;;8.70;6.18;;;22.90;61.50;;;;;;5112745;28;20080;-74
2021/05/20 02:39:43;;;;;;;8.02;5.43;;;22.90;61.30;;;;;;5094634;28;20487;-74
2021/05/20 02:42:09;;;;;;;10.63;5.43;;;22.90;61.30;;;;;;5094435;28;20504;-74
2021/05/20 02:44:35;;;;;;;9.43;5.95;;;22.90;61.10;;;;;;5095293;28;20538;-74
2021/05/20 02:47:01;;;;;;;9.57;6.38;;;22.90;61.00;;;;;;5094825;28;20043;-74
2021/05/20 02:49:27;;;;;;;8.15;6.05;;;22.90;60.90;;;;;;5094674;28;20055;-74
2021/05/20 02:51:53;;;;;;;9.02;6.10;;;22.90;60.70;;;;;;5113321;28;20456;-72
2021/05/20 02:54:19;;;;;;;10.93;6.13;;;23.00;60.70;;;;;;5113114;28;20146;-70
2021/05/20 02:56:45;;;;;;;8.45;6.05;;;23.00;60.70;;;;;;5094895;28;20498;-71
2021/05/20 02:59:11;;;;;;;7.80;5.72;;;23.00;60.60;;;;;;5095015;28;20028;-69
2021/05/20 03:01:46;;;;;;;9.30;6.32;;;23.10;60.20;;;;;;5112549;28;20051;-70
2021/05/20 03:04:12;;;;;;;7.07;5.93;;;23.10;60.10;;;;;;5113204;28;20506;-70
2021/05/20 03:06:39;;;;;;;6.15;5.55;;;23.20;60.00;;;;;;5094658;28;20034;-75
2021/05/20 03:09:08;;;;;;;5.43;4.93;;;23.20;60.00;;;;;;5112947;28;20070;-72
2021/05/20 03:11:34;;;;;;;5.43;4.90;;;23.20;59.70;;;;;;5113223;28;20043;-70
2021/05/20 03:14:00;;;;;;;8.60;5.15;;;23.20;59.50;;;;;;5113552;28;20120;-69
2021/05/20 03:16:26;;;;;;;5.75;5.25;;;23.30;59.40;;;;;;5094709;28;20120;-78
2021/05/20 03:18:53;;;;;;;6.95;6.32;;;23.40;59.50;;;;;;5113268;28;20043;-76
2021/05/20 03:21:19;;;;;;;8.27;7.05;;;23.40;59.70;;;;;;5113023;28;20042;-74
2021/05/20 03:23:45;;;;;;;7.72;6.88;;;23.40;60.20;;;;;;5094874;28;20046;-76
2021/05/20 03:26:11;;;;;;;10.05;7.55;;;23.30;60.20;;;;;;5095388;28;20035;-74
2021/05/20 03:28:37;;;;;;;9.98;6.80;;;23.20;60.30;;;;;;5113216;28;20384;-74
2021/05/20 03:31:03;;;;;;;8.30;7.45;;;23.10;60.20;;;;;;5113003;28;20031;-74
2021/05/20 03:33:29;;;;;;;9.75;7.30;;;23.10;60.30;;;;;;5113122;28;20115;-74
2021/05/20 03:35:57;;;;;;;10.57;7.75;;;23.10;60.50;;;;;;5112645;28;20031;-75
2021/05/20 03:38:24;;;;;;;7.78;6.72;;;23.30;60.10;;;;;;5094376;28;20032;-74
2021/05/20 03:40:50;;;;;;;8.95;6.90;;;23.60;59.50;;;;;;5077796;28;20146;-73
2021/05/20 03:43:17;;;;;;;7.80;6.45;;;23.90;58.70;;;;;;5113305;28;20036;-71
2021/05/20 03:45:43;;;;;;;9.68;6.85;;;24.30;57.60;;;;;;5116829;28;20092;-79
2021/05/20 03:48:09;;;;;;;6.80;6.18;;;24.80;56.40;;;;;;5102667;28;20055;-82
2021/05/20 03:50:35;;;;;;;10.95;6.47;;;25.30;55.50;;;;;;5100954;28;20046;-84
2021/05/20 03:53:01;;;;;;;7.07;6.20;;;25.50;54.70;;;;;;5117310;28;20051;-77
2021/05/20 03:55:27;;;;;;;6.55;5.90;;;25.40;54.00;;;;;;5098648;28;20506;-82
2021/05/20 03:57:53;;;;;;;6.38;5.78;;;25.30;54.20;;;;;;5116828;28;20090;-74
2021/05/20 04:00:19;;;;;;;7.07;5.93;;;25.30;54.40;;;;;;5116480;28;20028;-77
2021/05/20 04:02:49;;;;;;;6.47;5.82;;;25.40;54.60;;;;;;5116380;28;20060;-74
2021/05/20 04:05:15;;;;;;;7.72;5.70;;;25.30;54.50;;;;;;5097902;28;20459;-73
2021/05/20 04:07:41;;;;;;;7.97;5.80;;;25.30;54.80;;;;;;5097625;28;20031;-75
2021/05/20 04:10:09;;;;;;;9.02;6.30;;;25.30;54.90;;;;;;5081886;28;20463;-79
2021/05/20 04:12:34;;;;;;;8.75;7.57;;;25.10;54.90;;;;;;5098152;28;20031;-77
2021/05/20 04:15:00;;;;;;;9.18;6.50;;;25.00;55.10;;;;;;5098395;28;20566;-82
2021/05/20 04:17:26;;;;;;;9.63;7.70;;;24.80;55.30;;;;;;5097951;28;20066;-80
2021/05/20 04:19:52;;;;;;;9.10;8.02;;;24.70;55.70;;;;;;5097861;28;20039;-80
2021/05/20 04:22:18;;;;;;;11.02;7.78;;;24.50;56.30;;;;;;5116081;28;20032;-77
2021/05/20 04:24:44;;;;;;;8.63;7.60;;;24.30;56.90;;;;;;5098289;28;20035;-81
2021/05/20 04:27:10;;;;;;;7.97;7.18;;;24.10;57.40;;;;;;5097527;28;20491;-79
2021/05/20 04:29:37;;;;;;;7.45;6.28;;;24.00;58.10;;;;;;5116565;28;20055;-77
2021/05/20 04:32:03;;;;;;;9.55;6.45;;;24.00;58.20;;;;;;5097782;28;20480;-80
2021/05/20 04:34:29;;;;;;;9.52;7.82;;;24.10;58.10;;;;;;5115858;28;20036;-78
2021/05/20 04:36:55;;;;;;;11.10;7.32;;;24.10;58.00;;;;;;5097311;28;20130;-79
2021/05/20 04:39:21;;;;;;;10.55;7.32;;;24.00;58.20;;;;;;5097040;28;20496;-76
2021/05/20 04:41:47;;;;;;;10.50;7.60;;;24.00;58.60;;;;;;5115764;28;20039;-82
2021/05/20 04:44:15;;;;;;;12.60;7.90;;;23.90;58.60;;;;;;5115246;28;20102;-72
2021/05/20 04:46:41;;;;;;;13.40;7.32;;;23.90;58.60;;;;;;5115610;28;20044;-71
2021/05/20 04:49:15;;;;;;;9.02;4.97;;;23.80;58.70;;;;;;5097259;28;20038;-75
2021/05/20 04:51:42;;;;;;;5.32;4.75;;;23.80;58.30;;;;;;5115587;28;20031;-79
2021/05/20 04:54:08;;;;;;;8.23;5.00;;;23.80;58.20;;;;;;5115400;28;20046;-73
2021/05/20 04:56:35;;;;;;;6.13;4.30;;;23.60;58.20;;;;;;5115310;28;20054;-72
2021/05/20 04:59:01;;;;;;;5.22;3.88;;;23.40;58.40;;;;;;5097252;28;20080;-75
2021/05/20 05:01:27;;;;;;;5.22;3.75;;;23.20;58.70;;;;;;5115163;28;20073;-74
2021/05/20 05:03:56;;;;;;;4.32;3.90;;;23.00;59.50;;;;;;5097547;28;20066;-82
2021/05/20 05:06:22;;;;;;;3.80;3.40;;;23.00;59.70;;;;;;5115637;28;20051;-75
2021/05/20 05:08:49;;;;;;;4.30;3.15;;;22.90;59.80;;;;;;5114939;28;20046;-74
2021/05/20 05:11:15;;;;;;;4.97;3.63;;;22.70;59.90;;;;;;5114956;28;20117;-72
2021/05/20 05:13:41;;;;;;;3.72;3.05;;;22.60;60.20;;;;;;5115047;28;20039;-75
2021/05/20 05:16:06;;;;;;;3.17;2.80;;;22.40;60.40;;;;;;5114906;28;20065;-78
2021/05/20 05:18:32;;;;;;;3.38;3.05;;;22.30;61.00;;;;;;5080041;28;20145;-77
2021/05/20 05:20:58;;;;;;;3.92;3.30;;;22.30;61.10;;;;;;5114507;28;20377;-79
2021/05/20 05:23:27;;;;;;;4.55;3.30;;;22.20;61.60;;;;;;5097603;28;20036;-73
2021/05/20 05:25:52;;;;;;;6.85;3.60;;;22.20;61.60;;;;;;5114630;28;20048;-73
2021/05/20 05:28:18;;;;;;;4.78;3.90;;;22.20;62.20;;;;;;5114645;28;20121;-75
2021/05/20 05:30:45;;;;;;;8.18;3.55;;;22.20;62.10;;;;;;5096191;28;20035;-74
2021/05/20 05:33:11;;;;;;;5.50;3.40;;;22.20;62.10;;;;;;5096134;28;20040;-74
2021/05/20 05:35:37;;;;;;;4.07;3.33;;;22.10;62.20;;;;;;5096332;28;20027;-74
2021/05/20 05:38:03;;;;;;;4.40;3.53;;;22.00;62.30;;;;;;5114744;28;20547;-79
2021/05/20 05:40:30;;;;;;;6.78;3.70;;;21.70;62.90;;;;;;5114251;28;20040;-71
2021/05/20 05:42:56;;;;;;;4.10;3.50;;;21.60;63.80;;;;;;5079803;28;20047;-72
2021/05/20 05:45:22;;;;;;;6.35;3.40;;;21.60;64.30;;;;;;5114529;28;20092;-74
2021/05/20 05:47:48;;;;;;;4.80;3.20;;;21.60;63.90;;;;;;5114241;28;20063;-73
2021/05/20 05:50:15;;;;;;;3.70;3.40;;;21.60;64.00;;;;;;5096012;28;20043;-75
2021/05/20 05:52:41;;;;;;;9.23;4.15;;;21.70;64.00;;;;;;5114029;28;20062;-70
2021/05/20 05:55:08;;;;;;;3.50;3.10;;;21.60;64.20;;;;;;5095716;28;20483;-72
2021/05/20 05:57:34;;;;;;;6.57;4.43;;;21.70;64.10;;;;;;5062535;28;20039;-75
2021/05/20 06:00:00;;;;;;;6.57;3.53;;;21.80;63.90;;;;;;5095927;28;20070;-74
2021/05/20 06:02:27;;;;;;;3.90;3.33;;;21.70;64.00;;;;;;5114126;28;20142;-71
2021/05/20 06:04:53;;;;;;;4.32;3.58;;;21.70;64.10;;;;;;5078873;28;20095;-71
2021/05/20 06:07:19;;;;;;;4.45;3.55;;;21.60;64.20;;;;;;5094990;28;20051;-71
2021/05/20 06:09:45;;;;;;;4.95;3.67;;;21.50;64.30;;;;;;5118165;28;20042;-72
2021/05/20 06:12:12;;;;;;;6.28;3.70;;;21.40;64.80;;;;;;5106502;28;20574;-72
2021/05/20 06:14:40;;;;;;;8.13;4.07;;;21.60;64.10;;;;;;5113753;28;20031;-76
2021/05/20 06:17:07;;;;;;;6.20;4.00;;;21.70;63.80;;;;;;5113430;28;20038;-77
2021/05/20 06:19:33;;;;;;;5.50;3.92;;;21.80;63.40;;;;;;5095463;28;20039;-75
2021/05/20 06:21:59;;;;;;;6.03;3.55;;;21.70;63.40;;;;;;5113537;28;20043;-76
2021/05/20 06:24:26;;;;;;;5.50;3.45;;;21.60;63.20;;;;;;5113487;28;20035;-74
2021/05/20 06:26:52;;;;;;;5.68;4.05;;;21.40;63.60;;;;;;5113397;28;20076;-78
2021/05/20 06:29:19;;;;;;;4.63;3.33;;;21.20;64.50;;;;;;5094692;28;20499;-73
2021/05/20 06:31:45;;;;;;;4.32;3.58;;;21.10;65.30;;;;;;5112705;28;20023;-72
2021/05/20 06:34:11;;;;;;;4.85;3.80;;;21.00;65.50;;;;;;5095048;28;20046;-76
2021/05/20 06:36:37;;;;;;;4.18;2.97;;;21.00;65.70;;;;;;5113035;28;20039;-77
2021/05/20 06:39:08;;;;;;;5.72;3.38;;;20.90;65.50;;;;;;5112642;28;20449;-76
2021/05/20 06:41:34;;;;;;;4.63;2.75;;;20.90;65.20;;;;;;5112853;28;20039;-74
2021/05/20 06:44:00;;;;;;;3.35;3.00;;;20.90;64.40;;;;;;5095088;28;20058;-72
2021/05/20 06:46:26;;;;;;;3.40;3.10;;;20.90;65.30;;;;;;5113338;28;20039;-71
2021/05/20 06:48:54;;;;;;;3.20;2.90;;;21.20;65.40;;;;;;5113646;28;20028;-67
2021/05/20 06:51:20;;;;;;;4.28;3.20;;;21.60;64.70;;;;;;5094952;28;20130;-71
2021/05/20 06:53:48;;;;;;;4.40;2.78;;;21.80;64.00;;;;;;5113063;28;20122;-69
2021/05/20 06:56:21;;;;;;;4.28;2.60;;;22.00;63.60;;;;;;5113237;28;20161;-69
2021/05/20 07:01:31;;;;;;;4.43;3.03;;;22.20;62.90;;;;;;5111395;28;20544;-66
2021/05/20 07:03:57;;;;;;;4.75;3.20;;;22.40;62.60;;;;;;5111544;28;20044;-66
2021/05/20 07:06:23;;;;;;;4.35;3.28;;;22.40;62.30;;;;;;5111475;28;20111;-69
2021/05/20 07:08:49;;;;;;;7.50;3.25;;;22.60;62.10;;;;;;5112705;28;20040;-65
2021/05/20 07:11:15;;;;;;;4.38;2.67;;;22.70;62.00;;;;;;5112331;28;20124;-67
2021/05/20 07:13:40;;;;;;;3.50;3.20;;;22.80;62.50;;;;;;5112682;28;20031;-69
2021/05/20 07:16:06;;;;;;;4.72;3.80;;;22.90;61.60;;;;;;5094635;28;20511;-65
2021/05/20 07:18:32;;;;;;;3.97;3.40;;;23.00;61.50;;;;;;5115597;28;20101;-65
2021/05/20 07:20:58;;;;;;;4.30;3.53;;;23.10;61.30;;;;;;5098498;28;20487;-67
2021/05/20 07:23:25;;;;;;;5.35;3.22;;;23.10;61.10;;;;;;5116754;28;20031;-68
2021/05/20 07:25:51;;;;;;;5.28;3.67;;;23.10;61.00;;;;;;5116380;28;21461;-68
2021/05/20 07:28:17;;;;;;;4.35;3.75;;;23.10;61.20;;;;;;5116161;28;20100;-65
2021/05/20 07:30:43;;;;;;;5.22;3.72;;;23.00;61.40;;;;;;5116357;28;20035;-66
2021/05/20 07:33:11;;;;;;;4.00;3.53;;;23.10;61.30;;;;;;5098380;28;20063;-69
2021/05/20 07:35:37;;;;;;;6.97;3.40;;;23.10;61.30;;;;;;5117127;28;20502;-65
2021/05/20 07:38:04;;;;;;;3.60;3.30;;;23.00;61.10;;;;;;5116805;28;20118;-72
2021/05/20 07:40:30;;;;;;;4.03;3.10;;;23.00;61.20;;;;;;5098482;28;20075;-73
2021/05/20 07:42:56;;;;;;;3.80;3.35;;;23.10;61.00;;;;;;5116333;28;20039;-74
2021/05/20 07:45:23;;;;;;;3.88;3.13;;;23.00;60.70;;;;;;5116606;28;20244;-71
2021/05/20 07:47:49;;;;;;;5.00;3.15;;;22.90;60.60;;;;;;5080810;28;20081;-71
2021/05/20 07:50:16;;;;;;;4.70;3.58;;;22.90;60.30;;;;;;5113351;28;20047;-73
2021/05/20 07:52:43;;;;;;;4.63;3.08;;;22.90;60.20;;;;;;5097619;28;20035;-73
2021/05/20 07:55:10;;;;;;;4.18;2.72;;;23.00;60.20;;;;;;5115779;28;20039;-77
2021/05/20 07:57:35;;;;;;;5.82;3.03;;;23.30;59.60;;;;;;5078168;28;20407;-71
2021/05/20 08:00:03;;;;;;;3.53;2.88;;;23.40;59.10;;;;;;5098107;28;20023;-75
2021/05/20 08:03:19;;;;;;;7.88;3.30;;;23.50;58.90;;;;;;5073097;28;20074;-74
2021/05/20 08:09:14;;;;;;;6.03;3.30;;;23.40;58.70;;;;;;5073133;28;19912;-77
2021/05/20 08:11:21;;;;;;;5.03;2.97;;;23.20;58.90;;;;;;5071007;28;20041;-78
2021/05/20 08:13:47;;;;;;;3.85;2.58;;;23.10;59.30;;;;;;5073162;28;20090;-77
2021/05/20 08:16:13;;;;;;;3.13;2.83;;;23.00;59.40;;;;;;5073218;28;20168;-78
2021/05/20 08:18:39;;;;;;;3.47;2.50;;;22.90;59.80;;;;;;5056437;28;20051;-74
2021/05/20 08:21:06;;;;;;;5.57;3.17;;;22.80;59.80;;;;;;5072906;28;20169;-72
2021/05/20 08:23:33;;;;;;;3.28;2.97;;;22.80;59.90;;;;;;5056077;28;20051;-74
2021/05/20 08:26:01;;;;;;;3.50;3.20;;;22.70;60.00;;;;;;5056375;28;20530;-70
2021/05/20 08:28:27;;;;;;;3.92;3.15;;;22.70;60.20;;;;;;5055978;28;20044;-73
2021/05/20 08:30:54;;;;;;;5.32;3.05;;;22.60;60.20;;;;;;5071569;28;20374;-74
2021/05/20 08:33:20;;;;;;;4.70;3.55;;;22.50;60.70;;;;;;5065869;28;20500;-73
2021/05/20 08:35:46;;;;;;;4.07;3.67;;;22.40;60.90;;;;;;5093747;28;20043;-73
2021/05/20 08:38:14;;;;;;;4.20;3.80;;;22.30;61.20;;;;;;5094937;28;20032;-75
2021/05/20 08:40:41;;;;;;;5.25;4.03;;;22.20;61.50;;;;;;5093810;28;20463;-74
2021/05/20 08:43:07;;;;;;;5.60;5.07;;;22.10;62.20;;;;;;5094708;28;20043;-73
2021/05/20 08:45:33;;;;;;;5.85;5.32;;;21.90;62.90;;;;;;5093581;28;20396;-72
2021/05/20 08:48:01;;;;;;;7.30;6.55;;;21.90;63.20;;;;;;5095025;28;20063;-71
2021/05/20 08:50:30;;;;;;;7.10;6.50;;;21.80;63.50;;;;;;5094810;28;20036;-72
2021/05/20 08:52:56;;;;;;;7.72;6.85;;;21.80;63.70;;;;;;5094639;28;20560;-70
2021/05/20 08:55:28;;;;;;;7.30;6.65;;;21.80;63.70;;;;;;5094863;28;20032;-74
2021/05/20 08:57:57;;;;;;;8.80;7.43;;;21.80;64.00;;;;;;5094004;28;20039;-69
2021/05/20 09:00:25;;;;;;;8.00;7.30;;;21.80;64.10;;;;;;5094812;28;20035;-68
2021/05/20 09:02:51;;;;;;;8.05;7.32;;;21.80;64.20;;;;;;5108791;28;20056;-71
2021/05/20 09:05:21;;;;;;;7.63;6.95;;;21.80;64.30;;;;;;5096985;28;20032;-69
2021/05/20 09:07:51;;;;;;;7.22;6.60;;;21.80;64.50;;;;;;5114690;28;20047;-73
2021/05/20 09:10:24;;;;;;;6.95;6.32;;;21.80;64.40;;;;;;5096595;28;20114;-69
2021/05/20 09:13:05;;;;;;;7.53;5.55;;;21.80;64.30;;;;;;5096719;28;20096;-74
2021/05/20 09:15:57;;;;;;;6.80;6.20;;;21.80;64.30;;;;;;5115281;28;20035;-71
2021/05/20 09:18:26;;;;;;;7.68;5.57;;;21.90;64.10;;;;;;5110559;28;20082;-72
2021/05/20 09:20:54;;;;;;;7.75;5.82;;;22.00;63.80;;;;;;5115746;28;20030;-75
2021/05/20 09:23:23;;;;;;;6.05;5.45;;;22.00;63.70;;;;;;5115486;28;20046;-79
2021/05/20 09:25:51;;;;;;;6.05;5.40;;;22.10;63.50;;;;;;5081027;28;20035;-79
2021/05/20 09:28:35;;;;;;;5.38;4.90;;;22.10;63.50;;;;;;5115592;28;20200;-72
2021/05/20 09:31:02;;;;;;;7.35;5.32;;;22.10;63.40;;;;;;5114498;28;20057;-74
2021/05/20 09:33:28;;;;;;;5.72;5.13;;;22.20;63.20;;;;;;5114356;28;20055;-77
2021/05/20 09:35:54;;;;;;;5.70;5.20;;;22.10;63.10;;;;;;5096134;28;20414;-77
2021/05/20 09:38:22;;;;;;;8.27;5.30;;;22.10;63.50;;;;;;5096487;28;20032;-74
2021/05/20 09:40:56;;;;;;;6.40;5.80;;;22.00;63.40;;;;;;5095832;28;20428;-75
2021/05/20 09:43:34;;;;;;;5.93;5.30;;;21.90;63.70;;;;;;5095866;28;20031;-75
2021/05/20 09:46:12;;;;;;;6.03;5.05;;;21.80;63.90;;;;;;5114132;28;20031;-75
2021/05/20 09:48:40;;;;;;;5.63;5.13;;;21.90;63.70;;;;;;5096141;28;20104;-75
2021/05/20 09:51:19;;;;;;;6.25;5.68;;;22.00;63.50;;;;;;5096142;28;20547;-74
2021/05/20 09:53:48;;;;;;;8.23;5.88;;;22.00;63.50;;;;;;5079141;28;20039;-77
2021/05/20 09:56:14;;;;;;;7.40;5.95;;;22.10;63.30;;;;;;5114119;28;20036;-76
2021/05/20 09:58:53;;;;;;;6.68;6.07;;;22.20;63.00;;;;;;5113936;28;20120;-75
2021/05/20 10:01:20;;;;;;;6.78;5.97;;;22.30;62.70;;;;;;5113662;28;20526;-73
2021/05/20 10:03:53;;;;;;;7.05;6.35;;;22.40;62.40;;;;;;5114031;28;20036;-72
2021/05/20 10:06:36;;;;;;;6.70;5.40;;;22.50;62.20;;;;;;5095493;28;20043;-71
2021/05/20 10:09:04;;;;;;;6.80;5.55;;;22.60;62.00;;;;;;5113265;28;20035;-69
2021/05/20 10:11:35;;;;;;;7.95;5.40;;;22.70;61.70;;;;;;5113741;28;20042;-68
2021/05/20 10:14:05;;;;;;;5.07;4.68;;;22.80;62.70;;;;;;5113927;28;20038;-69
2021/05/20 10:16:33;;;;;;;7.35;5.13;;;22.90;63.90;;;;;;5096018;28;20038;-70
2021/05/20 10:18:59;;;;;;;6.18;4.90;;;23.10;63.20;;;;;;5113400;28;20523;-69
2021/05/20 10:21:28;;;;;;;6.97;5.97;;;23.20;63.00;;;;;;5078141;28;20038;-74
2021/05/20 10:23:55;;;;;;;6.22;5.63;;;23.30;62.90;;;;;;5095003;28;20050;-70
2021/05/20 10:26:21;;;;;;;6.57;4.93;;;23.30;62.70;;;;;;5113769;28;20040;-70
2021/05/20 10:28:47;;;;;;;6.18;5.57;;;23.30;62.70;;;;;;5113311;28;20492;-68
2021/05/20 10:31:15;;;;;;;7.72;5.30;;;23.30;62.60;;;;;;5113446;28;20043;-69
2021/05/20 10:33:44;;;;;;;5.70;5.18;;;23.40;62.30;;;;;;5113203;28;20495;-71
2021/05/20 10:36:29;;;;;;;5.57;5.00;;;23.50;62.00;;;;;;5113250;28;20039;-70
2021/05/20 10:38:55;;;;;;;6.10;4.90;;;23.50;61.20;;;;;;5113582;28;20039;-71
2021/05/20 10:41:24;;;;;;;6.00;5.25;;;23.60;61.20;;;;;;5094865;28;20028;-70
2021/05/20 10:44:09;;;;;;;9.10;5.18;;;23.60;61.30;;;;;;5095026;28;20071;-66
2021/05/20 10:46:56;;;;;;;8.23;5.45;;;23.60;61.60;;;;;;5113352;28;20069;-69
2021/05/20 10:49:45;;;;;;;14.05;8.68;;;23.70;61.70;;;;;;5078275;28;20062;-67
2021/05/20 10:52:33;;;;;;;8.20;6.20;;;23.80;62.30;;;;;;5112749;28;20042;-77
2021/05/20 10:55:00;;;;;;;7.82;5.63;;;23.90;62.10;;;;;;5095023;28;20063;-70
2021/05/20 10:58:01;;;;;;;7.85;5.60;;;23.90;61.80;;;;;;5113446;28;20046;-72
2021/05/20 11:00:38;;;;;;;7.25;5.15;;;24.00;62.00;;;;;;4991021;28;20495;-70
2021/05/20 11:03:06;;;;;;;10.48;6.30;;;24.20;61.30;;;;;;5080116;28;20472;-71
2021/05/20 11:05:41;;;;;;;5.78;5.28;;;24.40;60.00;;;;;;5094937;28;20153;-75
2021/05/20 11:08:25;;;;;;;7.72;5.35;;;24.40;59.30;;;;;;5112850;28;20038;-71
2021/05/20 11:10:51;;;;;;;6.43;5.47;;;24.20;58.50;;;;;;5113387;28;20032;-71
2021/05/20 11:13:35;;;;;;;6.47;5.40;;;24.20;58.90;;;;;;5094782;28;20092;-74
2021/05/20 11:16:11;;;;;;;7.43;4.88;;;24.30;58.70;;;;;;5113097;28;20040;-72
2021/05/20 11:18:37;;;;;;;6.53;4.90;;;24.20;57.60;;;;;;5094934;28;20043;-73
2021/05/20 11:21:03;;;;;;;7.63;4.82;;;24.10;57.60;;;;;;5112963;28;20483;-72
2021/05/20 11:23:30;;;;;;;6.25;4.60;;;24.20;57.80;;;;;;5112796;28;20051;-73
2021/05/20 11:26:00;;;;;;;7.72;4.53;;;24.20;57.40;;;;;;5112617;28;20084;-73
2021/05/20 11:28:26;;;;;;;5.15;4.15;;;24.20;57.00;;;;;;5094692;28;20143;-71
2021/05/20 11:30:59;;;;;;;5.15;4.38;;;24.30;57.70;;;;;;5113114;28;20184;-73
2021/05/20 11:33:29;;;;;;;5.20;4.50;;;24.20;56.90;;;;;;5112853;28;20069;-72
2021/05/20 11:38:28;;;;;;;5.07;4.32;;;24.20;56.90;;;;;;5094673;28;20035;-72
2021/05/20 11:40:55;;;;;;;8.73;4.57;;;24.30;56.80;;;;;;5112328;28;20103;-72
2021/05/20 11:43:28;;;;;;;4.18;3.88;;;24.40;56.50;;;;;;5094122;28;20074;-73
2021/05/20 11:45:54;;;;;;;7.10;3.90;;;24.40;55.90;;;;;;5094722;28;20069;-75
2021/05/20 11:48:20;;;;;;;5.60;3.80;;;24.50;55.80;;;;;;5112990;28;20089;-73
2021/05/20 11:50:53;;;;;;;4.75;3.70;;;24.60;55.60;;;;;;5112578;28;20380;-73
2021/05/20 11:53:19;;;;;;;4.53;3.85;;;24.60;55.20;;;;;;5094797;28;20031;-71
2021/05/20 11:55:46;;;;;;;4.20;3.80;;;24.70;55.10;;;;;;5112429;28;20445;-72
2021/05/20 11:58:13;;;;;;;4.32;3.80;;;24.70;55.00;;;;;;5094458;28;20462;-71
2021/05/20 12:00:39;;;;;;;5.13;3.95;;;24.60;55.00;;;;;;5112441;28;20445;-72
2021/05/20 12:03:05;;;;;;;5.75;3.53;;;24.60;55.00;;;;;;5112979;28;20062;-73
2021/05/20 12:05:31;;;;;;;5.18;3.67;;;24.50;55.10;;;;;;5114964;28;20044;-71
2021/05/20 12:07:57;;;;;;;5.65;3.63;;;24.50;55.10;;;;;;5116558;28;20123;-71
2021/05/20 12:10:24;;;;;;;7.03;3.47;;;24.60;54.90;;;;;;5098180;28;20039;-71
2021/05/20 12:13:00;;;;;;;6.32;3.03;;;24.60;54.60;;;;;;5098157;28;20040;-72
2021/05/20 12:15:28;;;;;;;3.50;3.20;;;24.60;54.60;;;;;;5097863;28;20028;-71
2021/05/20 12:17:58;;;;;;;4.05;3.13;;;24.60;54.60;;;;;;5098232;28;20507;-72
2021/05/20 12:20:25;;;;;;;3.60;3.30;;;24.50;54.00;;;;;;5081158;28;20088;-72
2021/05/20 12:22:51;;;;;;;3.10;2.80;;;24.40;53.90;;;;;;5115987;28;20552;-72
2021/05/20 12:25:20;;;;;;;7.45;3.17;;;24.40;54.00;;;;;;5116015;28;20114;-71
2021/05/20 12:27:48;;;;;;;3.38;3.00;;;24.40;53.90;;;;;;5097575;28;20032;-72
2021/05/20 12:30:21;;;;;;;5.20;3.30;;;24.40;53.80;;;;;;5081127;28;20436;-72
2021/05/20 12:33:08;;;;;;;3.25;2.97;;;24.40;54.00;;;;;;5080778;28;20046;-71
2021/05/20 12:35:37;;;;;;;4.13;3.50;;;24.30;53.80;;;;;;5115292;28;20040;-71
2021/05/20 12:38:20;;;;;;;3.20;2.95;;;24.30;53.70;;;;;;5115736;28;20130;-72
2021/05/20 12:40:54;;;;;;;3.33;2.90;;;24.20;53.70;;;;;;5097582;28;20027;-71
2021/05/20 12:43:21;;;;;;;6.28;3.20;;;24.30;53.90;;;;;;5097697;28;20081;-73
2021/05/20 12:45:47;;;;;;;3.40;3.10;;;24.20;53.70;;;;;;5115400;28;20042;-73
2021/05/20 12:48:29;;;;;;;7.55;3.55;;;24.30;53.70;;;;;;5097432;28;20031;-74
2021/05/20 12:50:58;;;;;;;5.90;3.10;;;24.40;53.60;;;;;;5115826;28;20031;-72
2021/05/20 12:53:29;;;;;;;4.00;2.90;;;24.40;53.20;;;;;;5115433;28;20069;-71
2021/05/20 12:55:59;;;;;;;5.35;3.00;;;24.50;53.20;;;;;;5115254;28;20172;-72
2021/05/20 12:58:26;;;;;;;3.05;2.85;;;24.50;53.10;;;;;;5115481;28;20043;-70
2021/05/20 13:00:59;;;;;;;3.33;2.90;;;24.60;53.10;;;;;;5115167;28;20035;-74